Terminal Aerodrome Forecast
Issued by NWS Jacksonville, FL

Home | Current Version | Previous Version | Text Only | Print | Product List | Glossary On
Versions: 1 2 3 4 5 6 7 8 9 10 11 12 13 14 15 16 17 18 19 20 21 22 23 24 25 26 27 28 29 30 31 32 33 34 35 36 37 38
100
FTUS42 KJAX 192236 AAB
TAFJAX
TAF AMD
KJAX 192236Z 1923/2018 04014G23KT P6SM SCT025 BKN045 OVC150
     FM200000 02010KT P6SM SCT035 BKN050 OVC120
      TEMPO 2000/2002 BKN030=

USA.gov is the U.S. government's official web portal to all federal, state and local government web resources and services.